Time;durP1;ratioP1;P1;durP2;ratioP2;P2;SDS_P1;SDS_P2;PMS_P1;PMS_P2;Temp;Humidity;BMP_temperature;BMP_pressure;BME280_temperature;BME280_humidity;BME280_pressure;Samples;Min_cycle;Max_cycle;Signal;HPM_P1;HPM_P2
2022/08/07 00:01:33;;;;;;;15.85;11.35;;;;;;;22.68;64.29;100420.19;5011715;28;20025;-87
2022/08/07 00:03:59;;;;;;;16.17;10.95;;;;;;;22.64;64.41;100419.88;5032260;28;20049;-88
2022/08/07 00:06:30;;;;;;;13.23;11.10;;;;;;;22.50;64.78;100418.50;5001047;28;20114;-88
2022/08/07 00:08:58;;;;;;;15.77;11.27;;;;;;;22.38;64.74;100402.13;5050318;28;20469;-87
2022/08/07 00:11:26;;;;;;;14.13;11.38;;;;;;;22.48;64.74;100415.19;5020651;28;20029;-88
2022/08/07 00:13:52;;;;;;;15.43;11.35;;;;;;;22.48;64.71;100426.16;5005385;28;20065;-87
2022/08/07 00:16:20;;;;;;;14.68;11.27;;;;;;;22.57;64.36;100407.41;5031072;28;20497;-88
2022/08/07 00:18:46;;;;;;;15.55;11.80;;;;;;;22.44;64.37;100405.81;5031329;28;20033;-87
2022/08/07 00:21:11;;;;;;;17.13;11.57;;;;;;;22.54;64.06;100419.69;5027898;28;20506;-87
2022/08/07 00:23:40;;;;;;;14.52;11.23;;;;;;;22.47;64.46;100417.09;5026544;28;20048;-87
2022/08/07 00:26:07;;;;;;;13.63;11.25;;;;;;;22.44;64.61;100403.06;5022593;28;20033;-89
2022/08/07 00:28:33;;;;;;;15.05;11.35;;;;;;;22.47;64.51;100400.66;5011543;28;20045;-88
2022/08/07 00:31:08;;;;;;;13.02;10.73;;;;;;;22.41;65.32;100389.88;5025868;28;20106;-88
2022/08/07 00:33:40;;;;;;;13.25;11.18;;;;;;;22.37;65.87;100392.25;5015888;28;20182;-88
2022/08/07 00:36:06;;;;;;;14.75;11.38;;;;;;;22.50;66.11;100402.06;5032581;28;20048;-87
2022/08/07 00:38:32;;;;;;;14.90;11.30;;;;;;;22.40;66.26;100397.22;5022169;28;20030;-88
2022/08/07 00:40:59;;;;;;;16.35;11.82;;;;;;;22.38;66.78;100393.91;5028047;28;20047;-87
2022/08/07 00:43:25;;;;;;;14.43;11.23;;;;;;;22.46;66.56;100396.25;5017775;28;20041;-90
2022/08/07 00:45:53;;;;;;;13.40;11.40;;;;;;;22.55;66.92;100408.50;5034806;28;20048;-88
2022/08/07 00:48:21;;;;;;;13.60;11.32;;;;;;;22.56;67.16;100414.78;5037504;28;20148;-88
2022/08/07 00:50:48;;;;;;;14.38;11.93;;;;;;;22.63;67.03;100407.25;5022454;28;20059;-87
2022/08/07 00:53:14;;;;;;;13.68;11.70;;;;;;;22.65;66.97;100409.75;5023440;28;20477;-88
2022/08/07 00:55:40;;;;;;;13.93;11.75;;;;;;;22.58;67.17;100392.63;5024102;28;20045;-88
2022/08/07 00:58:08;;;;;;;14.55;12.13;;;;;;;22.65;67.49;100399.63;5035667;28;20045;-88
2022/08/07 01:00:38;;;;;;;16.25;12.43;;;;;;;22.56;68.26;100409.31;5002645;28;20535;-88
2022/08/07 01:03:05;;;;;;;14.98;11.82;;;;;;;22.61;68.04;100403.09;5036983;28;20112;-88
2022/08/07 01:05:31;;;;;;;14.43;12.35;;;;;;;22.54;68.31;100404.06;4989154;28;20497;-88
2022/08/07 01:08:00;;;;;;;14.90;12.30;;;;;;;22.53;69.26;100401.59;5021179;28;20118;-88
2022/08/07 01:10:26;;;;;;;15.80;13.07;;;;;;;22.46;69.52;100407.22;5018881;28;20049;-88
2022/08/07 01:12:52;;;;;;;15.70;11.80;;;;;;;22.51;69.44;100399.09;5040890;28;20788;-87
2022/08/07 01:15:17;;;;;;;16.27;12.70;;;;;;;22.48;69.86;100405.06;5023182;28;20060;-87
2022/08/07 01:17:43;;;;;;;15.52;12.60;;;;;;;22.48;70.09;100394.13;5005960;28;20045;-87
2022/08/07 01:20:15;;;;;;;15.00;12.70;;;;;;;22.48;70.45;100399.59;5013468;28;20037;-88
2022/08/07 01:22:42;;;;;;;16.27;12.52;;;;;;;22.51;70.94;100399.09;4995692;28;20040;-88
2022/08/07 01:25:09;;;;;;;16.67;12.50;;;;;;;22.33;71.72;100374.66;5020282;28;20049;-87
2022/08/07 01:27:35;;;;;;;15.82;12.82;;;;;;;22.32;72.28;100378.47;5013732;28;20409;-88
2022/08/07 01:30:04;;;;;;;14.02;12.45;;;;;;;22.31;72.45;100388.59;5000602;28;20493;-87
2022/08/07 01:32:30;;;;;;;16.45;12.73;;;;;;;22.32;73.26;100394.91;5028686;28;20086;-88
2022/08/07 01:34:57;;;;;;;15.40;12.88;;;;;;;22.39;73.34;100383.81;5028230;28;20115;-88
2022/08/07 01:37:23;;;;;;;15.32;12.50;;;;;;;22.36;73.54;100393.34;5009062;28;20037;-87
2022/08/07 01:39:49;;;;;;;15.63;12.52;;;;;;;22.33;73.69;100380.13;5010932;28;20215;-88
2022/08/07 01:42:15;;;;;;;15.32;12.88;;;;;;;22.43;74.07;100395.91;5024228;28;20103;-87
2022/08/07 01:44:41;;;;;;;15.50;12.68;;;;;;;22.38;74.00;100393.91;5024124;28;20029;-88
2022/08/07 01:47:08;;;;;;;16.45;12.77;;;;;;;22.42;73.93;100400.56;5014760;28;20049;-88
2022/08/07 01:49:41;;;;;;;18.45;12.52;;;;;;;22.37;74.05;100392.25;5038009;28;20100;-88
2022/08/07 01:52:06;;;;;;;16.33;12.48;;;;;;;22.46;73.64;100396.25;5012586;28;20033;-88
2022/08/07 01:54:35;;;;;;;16.77;12.90;;;;;;;22.37;74.07;100391.44;5010312;28;20090;-86
2022/08/07 01:57:11;;;;;;;17.02;12.52;;;;;;;22.39;73.75;100403.81;5018187;28;20394;-88
2022/08/07 02:00:13;;;;;;;15.90;12.50;;;;;;;22.35;73.78;100399.88;5033634;28;20347;-88
2022/08/07 02:02:57;;;;;;;19.90;13.48;;;;;;;22.27;73.73;100398.38;4980924;28;20038;-88
2022/08/07 02:05:29;;;;;;;15.30;12.82;;;;;;;22.24;73.74;100392.53;4995881;28;20033;-87
2022/08/07 02:07:57;;;;;;;16.75;13.02;;;;;;;22.09;74.86;100393.88;5018094;28;20097;-88
2022/08/07 02:10:25;;;;;;;19.10;13.13;;;;;;;22.09;74.89;100396.63;5033145;28;20032;-89
2022/08/07 02:12:56;;;;;;;19.58;12.95;;;;;;;22.07;74.96;100398.78;5030388;28;20044;-87
2022/08/07 02:15:24;;;;;;;17.55;13.68;;;;;;;21.93;75.33;100389.19;5027171;28;20108;-89
2022/08/07 02:17:50;;;;;;;15.50;13.32;;;;;;;21.97;75.78;100395.84;5030825;28;20091;-88
2022/08/07 02:20:16;;;;;;;18.50;14.18;;;;;;;21.87;76.02;100398.38;4997371;28;20037;-88
2022/08/07 02:22:48;;;;;;;21.85;14.23;;;;;;;21.93;76.13;100402.88;5016866;28;20116;-88
2022/08/07 02:25:20;;;;;;;19.58;15.30;;;;;;;21.71;77.20;100370.69;5045416;28;20441;-89
2022/08/07 02:27:46;;;;;;;22.85;16.35;;;;;;;21.89;77.82;100399.78;5035328;28;20037;-88
2022/08/07 02:30:12;;;;;;;22.10;16.35;;;;;;;21.78;78.47;100388.88;5013199;28;20132;-88
2022/08/07 02:32:40;;;;;;;24.42;17.02;;;;;;;21.80;78.69;100398.50;5033814;28;20080;-88
2022/08/07 02:35:06;;;;;;;24.02;16.50;;;;;;;21.68;78.95;100384.84;5032044;28;20047;-87
2022/08/07 02:37:38;;;;;;;21.13;16.15;;;;;;;21.77;79.19;100393.50;5015369;28;20045;-88
2022/08/07 02:40:05;;;;;;;21.95;15.32;;;;;;;21.68;78.96;100393.06;5028184;28;20102;-88
2022/08/07 02:42:35;;;;;;;22.60;15.70;;;;;;;21.68;78.77;100390.31;5017009;28;20488;-88
2022/08/07 02:45:06;;;;;;;22.05;15.35;;;;;;;21.59;78.77;100391.78;5017602;28;20070;-88
2022/08/07 02:47:32;;;;;;;22.13;15.15;;;;;;;21.56;78.55;100392.22;5013767;28;20024;-88
2022/08/07 02:49:57;;;;;;;18.92;14.15;;;;;;;21.64;77.97;100394.59;5002262;28;20111;-88
2022/08/07 02:52:36;;;;;;;23.80;15.07;;;;;;;21.56;78.01;100397.69;5028472;28;20485;-89
2022/08/07 02:55:18;;;;;;;18.30;14.52;;;;;;;21.58;78.13;100392.81;5016614;28;20033;-89
2022/08/07 02:57:46;;;;;;;20.17;14.90;;;;;;;21.56;78.25;100388.66;5034353;28;20502;-88
2022/08/07 03:00:12;;;;;;;21.27;14.90;;;;;;;21.55;78.69;100385.09;5029841;28;20033;-88
2022/08/07 03:02:45;;;;;;;22.02;15.02;;;;;;;21.53;78.56;100392.72;5010830;28;20524;-89
2022/08/07 03:05:10;;;;;;;20.95;14.90;;;;;;;21.45;78.69;100390.38;5028995;28;20041;-89
2022/08/07 03:07:37;;;;;;;19.48;14.63;;;;;;;21.59;78.65;100394.50;5013308;28;20444;-88
2022/08/07 03:10:05;;;;;;;25.00;16.83;;;;;;;21.50;78.96;100387.75;5032170;28;20021;-89
2022/08/07 03:12:32;;;;;;;20.85;15.18;;;;;;;21.52;78.80;100396.53;5002349;28;20037;-89
2022/08/07 03:14:58;;;;;;;22.05;15.38;;;;;;;21.55;78.45;100396.03;5014732;28;20033;-88
2022/08/07 03:17:25;;;;;;;19.48;14.93;;;;;;;21.62;78.05;100404.13;5013390;28;20555;-88
2022/08/07 03:19:52;;;;;;;20.15;14.75;;;;;;;21.56;77.60;100402.34;5009535;28;20091;-89
2022/08/07 03:22:22;;;;;;;20.17;14.20;;;;;;;21.67;77.28;100405.06;5005986;28;20029;-89
2022/08/07 03:24:50;;;;;;;20.80;14.57;;;;;;;21.56;76.78;100381.28;5029311;28;20068;-88
2022/08/07 03:27:15;;;;;;;18.55;14.20;;;;;;;21.67;77.13;100405.06;5024459;28;20045;-89
2022/08/07 03:29:49;;;;;;;18.35;14.40;;;;;;;21.69;76.62;100402.91;5041244;28;20056;-88
2022/08/07 03:32:15;;;;;;;18.08;13.82;;;;;;;21.76;76.45;100407.44;5015604;28;20087;-89
2022/08/07 03:34:48;;;;;;;18.55;14.65;;;;;;;21.79;76.37;100407.78;5021711;28;20128;-88
2022/08/07 03:37:20;;;;;;;18.75;13.90;;;;;;;21.78;76.17;100405.31;5049497;28;20054;-87
2022/08/07 03:39:48;;;;;;;19.60;14.25;;;;;;;21.91;75.69;100415.94;5052456;28;20078;-89
2022/08/07 03:42:16;;;;;;;17.70;13.48;;;;;;;21.90;75.47;100408.84;5016747;28;20051;-89
2022/08/07 03:44:41;;;;;;;18.95;13.38;;;;;;;21.93;74.98;100413.81;5015502;28;20065;-89
2022/08/07 03:47:13;;;;;;;17.17;13.30;;;;;;;21.97;75.17;100417.72;5028061;28;20120;-89
2022/08/07 03:49:40;;;;;;;20.23;13.60;;;;;;;22.13;74.81;100422.44;5062521;28;20042;-87
2022/08/07 03:52:10;;;;;;;17.77;13.18;;;;;;;22.01;74.67;100405.22;5055726;28;20110;-87
2022/08/07 03:54:39;;;;;;;17.10;13.05;;;;;;;22.15;74.15;100416.75;5013379;28;20067;-88
2022/08/07 03:57:05;;;;;;;17.38;13.25;;;;;;;22.16;74.20;100415.66;5037807;28;20040;-90
2022/08/07 03:59:34;;;;;;;15.32;12.50;;;;;;;22.23;74.08;100421.84;5045912;28;20135;-90
2022/08/07 04:01:59;;;;;;;13.30;11.52;;;;;;;22.29;73.58;100417.31;5019281;28;20032;-88
2022/08/07 04:04:27;;;;;;;19.05;11.95;;;;;;;22.34;72.49;100406.44;5014812;28;20037;-90
2022/08/07 04:06:55;;;;;;;15.93;11.73;;;;;;;22.44;72.40;100414.84;5017617;28;20040;-90
2022/08/07 04:09:23;;;;;;;13.60;11.60;;;;;;;22.42;72.56;100411.53;5015812;28;20488;-90
2022/08/07 04:11:50;;;;;;;13.48;11.38;;;;;;;22.45;71.98;100416.53;5010881;28;20056;-89
2022/08/07 04:14:20;;;;;;;15.52;11.50;;;;;;;22.56;71.84;100414.78;5030319;28;20365;-88
2022/08/07 04:16:48;;;;;;;13.05;10.93;;;;;;;22.53;71.47;100409.81;5030896;28;20029;-87
2022/08/07 04:19:20;;;;;;;12.93;10.57;;;;;;;22.55;71.43;100422.19;5014330;28;20067;-89
2022/08/07 04:21:48;;;;;;;15.43;10.73;;;;;;;22.67;71.09;100424.03;5027121;28;20120;-88
2022/08/07 04:24:14;;;;;;;16.02;11.05;;;;;;;22.80;70.37;100410.00;5021054;28;20497;-88
2022/08/07 04:26:45;;;;;;;12.70;10.70;;;;;;;22.76;70.78;100423.38;5028832;28;20064;-88
2022/08/07 04:29:11;;;;;;;15.45;11.38;;;;;;;22.79;70.32;100419.31;5028186;28;20568;-89
2022/08/07 04:31:38;;;;;;;17.13;11.25;;;;;;;22.82;69.65;100424.28;5025463;28;20037;-88
2022/08/07 04:34:07;;;;;;;17.25;10.23;;;;;;;23.02;68.61;100423.03;4991779;28;20061;-88
2022/08/07 04:36:33;;;;;;;16.08;10.25;;;;;;;23.08;67.84;100420.09;5029069;28;20417;-90
2022/08/07 04:39:03;;;;;;;13.98;9.98;;;;;;;23.16;67.65;100422.44;5013339;28;20487;-89
2022/08/07 04:41:30;;;;;;;12.73;9.70;;;;;;;23.18;67.32;100419.44;5028673;28;20123;-89
2022/08/07 04:43:55;;;;;;;12.05;9.63;;;;;;;23.29;66.24;100414.94;5022548;28;20437;-89
2022/08/07 04:46:44;;;;;;;11.93;9.13;;;;;;;23.43;64.94;100415.41;5019819;28;20037;-87
2022/08/07 04:49:18;;;;;;;12.68;9.25;;;;;;;23.55;64.90;100411.50;5006971;28;20562;-89
2022/08/07 04:52:06;;;;;;;9.73;8.48;;;;;;;23.79;63.41;100414.84;5027156;28;20129;-88
2022/08/07 04:54:38;;;;;;;11.85;8.93;;;;;;;23.99;62.43;100408.78;5026708;28;20034;-87
2022/08/07 04:57:17;;;;;;;9.75;8.25;;;;;;;24.25;61.69;100411.00;5026372;28;20033;-87
2022/08/07 04:59:51;;;;;;;9.52;8.23;;;;;;;24.62;59.63;100424.88;5019896;28;20030;-88
2022/08/07 05:02:41;;;;;;;11.68;8.27;;;;;;;24.86;59.50;100430.88;5016157;28;20029;-87
2022/08/07 05:05:23;;;;;;;12.13;8.32;;;;;;;25.24;58.33;100423.53;5020787;28;20376;-87
2022/08/07 05:08:06;;;;;;;10.45;7.70;;;;;;;25.41;56.36;100407.66;5023153;28;20041;-88
2022/08/07 05:10:40;;;;;;;11.60;7.97;;;;;;;25.92;55.19;100420.91;4993874;28;20045;-89
2022/08/07 05:13:15;;;;;;;10.75;7.53;;;;;;;26.17;54.28;100428.44;4993727;28;20072;-88
2022/08/07 05:15:42;;;;;;;12.67;7.47;;;;;;;26.47;53.16;100429.63;5012014;28;20390;-87
2022/08/07 05:18:24;;;;;;;9.73;7.22;;;;;;;26.64;51.31;100410.09;5036299;28;20296;-87
2022/08/07 05:20:52;;;;;;;8.80;6.70;;;;;;;26.86;51.13;100429.16;5029556;28;20057;-88
2022/08/07 05:23:21;;;;;;;10.15;7.07;;;;;;;27.04;50.59;100412.06;5045163;28;20101;-87
2022/08/07 05:25:47;;;;;;;8.98;6.75;;;;;;;27.31;49.86;100422.00;4993133;28;20054;-88
2022/08/07 05:28:14;;;;;;;8.55;6.65;;;;;;;27.47;49.19;100429.13;5011111;28;20045;-87
2022/08/07 05:30:42;;;;;;;8.65;6.70;;;;;;;27.46;49.00;100401.81;4988391;28;20034;-88
2022/08/07 05:33:13;;;;;;;10.40;6.85;;;;;;;27.85;48.54;100429.59;5002991;28;20054;-87
2022/08/07 05:35:40;;;;;;;8.88;6.63;;;;;;;27.83;48.14;100415.25;5005008;28;20030;-87
2022/08/07 05:38:06;;;;;;;8.15;6.60;;;;;;;27.89;48.18;100413.31;4971580;28;20084;-88
2022/08/07 05:40:34;;;;;;;8.68;6.82;;;;;;;28.12;48.51;100431.13;5008733;28;20038;-87
2022/08/07 05:43:00;;;;;;;10.65;6.82;;;;;;;28.34;48.07;100428.81;5003307;28;20505;-87
2022/08/07 05:45:28;;;;;;;9.27;6.53;;;;;;;28.53;47.86;100422.66;5003362;28;20041;-88
2022/08/07 05:47:56;;;;;;;9.55;7.13;;;;;;;28.79;47.59;100429.66;4988395;28;20057;-87
2022/08/07 05:50:31;;;;;;;11.80;6.55;;;;;;;28.91;47.49;100431.22;4990057;28;20395;-87
2022/08/07 05:53:00;;;;;;;9.10;6.70;;;;;;;29.00;47.32;100432.25;4993108;28;20030;-90
2022/08/07 05:55:26;;;;;;;8.07;6.80;;;;;;;29.11;47.34;100442.16;5011724;28;20073;-87
2022/08/07 05:57:52;;;;;;;14.50;6.88;;;;;;;29.22;46.83;100446.50;4989089;28;20080;-86
2022/08/07 06:00:18;;;;;;;11.27;7.32;;;;;;;29.50;46.25;100443.19;5004596;28;20037;-85
2022/08/07 06:02:47;;;;;;;10.20;7.50;;;;;;;29.62;45.87;100451.94;5003572;28;20062;-85
2022/08/07 06:05:12;;;;;;;8.23;7.03;;;;;;;29.82;45.14;100431.50;4989240;28;20029;-85
2022/08/07 06:07:38;;;;;;;8.80;7.55;;;;;;;30.05;44.73;100450.06;4989707;28;20068;-85
2022/08/07 06:10:04;;;;;;;9.13;6.80;;;;;;;30.11;44.08;100441.66;4981036;28;20485;-87
2022/08/07 06:12:29;;;;;;;15.27;7.35;;;;;;;30.26;43.87;100428.47;4992644;28;20061;-86
2022/08/07 06:14:58;;;;;;;8.30;6.85;;;;;;;30.64;43.37;100447.06;5004802;28;20064;-86
2022/08/07 06:17:23;;;;;;;9.98;7.00;;;;;;;30.75;42.54;100451.34;5003036;28;20034;-86
2022/08/07 06:19:50;;;;;;;8.90;7.25;;;;;;;30.92;42.67;100451.63;4991476;28;20045;-88
2022/08/07 06:22:16;;;;;;;11.40;7.05;;;;;;;30.96;42.14;100437.16;4995419;28;20034;-88
2022/08/07 06:24:44;;;;;;;10.95;6.82;;;;;;;31.18;41.62;100445.66;4975588;28;20033;-89
2022/08/07 06:27:13;;;;;;;11.35;6.80;;;;;;;31.19;41.57;100439.00;4996350;28;20771;-87
2022/08/07 06:29:39;;;;;;;8.52;6.72;;;;;;;31.34;41.65;100447.03;5001475;28;20099;-89
2022/08/07 06:32:05;;;;;;;10.02;6.65;;;;;;;31.53;41.54;100452.53;5006817;28;20033;-86
2022/08/07 06:34:32;;;;;;;10.85;6.68;;;;;;;31.67;41.18;100444.22;5038120;28;20033;-87
2022/08/07 06:36:57;;;;;;;10.40;6.38;;;;;;;31.65;40.72;100440.94;5029249;28;20034;-86
2022/08/07 06:39:26;;;;;;;10.40;6.45;;;;;;;31.51;40.93;100454.78;4990101;28;20061;-87
2022/08/07 06:42:09;;;;;;;11.95;6.95;;;;;;;31.40;41.53;100449.72;5009119;28;20041;-88
2022/08/07 06:44:37;;;;;;;11.52;6.57;;;;;;;31.47;41.69;100448.22;5003482;28;20096;-88
2022/08/07 06:47:05;;;;;;;11.52;6.40;;;;;;;31.48;41.80;100458.19;4994829;28;20081;-85
2022/08/07 06:49:31;;;;;;;8.32;6.03;;;;;;;31.45;42.52;100458.00;4993674;28;20050;-87
2022/08/07 06:51:56;;;;;;;10.52;6.80;;;;;;;31.74;42.22;100457.72;4992118;28;20112;-87
2022/08/07 06:54:24;;;;;;;9.90;6.40;;;;;;;32.02;41.85;100455.78;5007898;28;20100;-86
2022/08/07 06:56:50;;;;;;;8.27;6.05;;;;;;;32.09;41.67;100455.38;4991543;28;20038;-86
2022/08/07 06:59:23;;;;;;;8.98;6.38;;;;;;;32.45;41.74;100458.22;4998183;28;20034;-86
2022/08/07 07:01:51;;;;;;;11.20;6.60;;;;;;;32.54;41.27;100445.22;5006801;28;20060;-86
2022/08/07 07:04:19;;;;;;;12.75;6.60;;;;;;;32.28;41.67;100458.03;5011879;28;20208;-86
2022/08/07 07:06:45;;;;;;;9.60;6.32;;;;;;;32.25;41.44;100447.53;5001950;28;20149;-85
2022/08/07 07:09:27;;;;;;;9.40;6.25;;;;;;;32.39;41.59;100465.00;5002333;28;20034;-88
2022/08/07 07:12:00;;;;;;;9.63;6.78;;;;;;;32.39;42.34;100463.06;4999928;28;20556;-87
2022/08/07 07:14:48;;;;;;;9.55;6.50;;;;;;;32.33;42.22;100455.94;4986163;28;20041;-87
2022/08/07 07:17:28;;;;;;;9.55;6.90;;;;;;;32.46;41.85;100465.41;5002994;28;20108;-87
2022/08/07 07:19:56;;;;;;;12.75;6.78;;;;;;;31.79;43.22;100459.56;4979015;28;20030;-85
2022/08/07 07:22:22;;;;;;;11.10;7.03;;;;;;;31.91;43.63;100466.28;5007545;28;20417;-86
2022/08/07 07:24:49;;;;;;;15.60;6.70;;;;;;;31.91;43.93;100454.31;5034727;28;20134;-84
2022/08/07 07:27:14;;;;;;;11.05;7.20;;;;;;;32.12;43.45;100454.75;5015956;28;20124;-84
2022/08/07 07:29:42;;;;;;;10.32;6.50;;;;;;;32.05;43.51;100469.06;5030123;28;20424;-87
2022/08/07 07:32:11;;;;;;;9.88;6.25;;;;;;;31.71;43.71;100461.94;5028855;28;20501;-84
2022/08/07 07:34:41;;;;;;;9.75;5.95;;;;;;;31.96;43.72;100468.16;5013360;28;20038;-82
2022/08/07 07:37:07;;;;;;;11.80;6.47;;;;;;;32.15;43.07;100463.31;5016933;28;20515;-84
2022/08/07 07:39:34;;;;;;;9.48;6.32;;;;;;;32.68;42.32;100456.28;5027267;28;20112;-83
2022/08/07 07:42:01;;;;;;;10.30;6.20;;;;;;;32.81;40.73;100451.84;5016397;28;20425;-85
2022/08/07 07:44:28;;;;;;;8.73;6.20;;;;;;;32.80;40.95;100459.38;5027997;28;20095;-85
2022/08/07 07:46:54;;;;;;;10.27;6.10;;;;;;;32.77;41.48;100456.38;4997088;28;20029;-84
2022/08/07 07:49:21;;;;;;;10.93;6.20;;;;;;;33.14;41.10;100454.38;5027720;28;20064;-86
2022/08/07 07:51:47;;;;;;;8.85;5.78;;;;;;;33.39;39.59;100462.09;5009430;28;20038;-88
2022/08/07 07:54:18;;;;;;;11.27;5.88;;;;;;;33.82;39.03;100472.63;5031314;28;20040;-88
2022/08/07 07:56:45;;;;;;;8.40;5.30;;;;;;;33.88;36.64;100480.84;5016788;28;20091;-85
2022/08/07 07:59:12;;;;;;;13.70;5.53;;;;;;;34.09;36.83;100490.31;5020014;28;20037;-85
2022/08/07 08:01:41;;;;;;;16.10;5.43;;;;;;;34.41;35.33;100468.72;4996938;28;20037;-84
2022/08/07 08:04:06;;;;;;;14.55;5.70;;;;;;;34.56;34.82;100473.84;5016279;28;20079;-87
2022/08/07 08:06:32;;;;;;;9.93;5.60;;;;;;;34.48;35.52;100466.25;5023913;28;20045;-85
2022/08/07 08:09:03;;;;;;;12.13;5.65;;;;;;;34.94;34.54;100470.41;5017047;28;20512;-83
2022/08/07 08:11:32;;;;;;;10.00;5.65;;;;;;;35.34;34.55;100473.00;5023097;28;20029;-83
2022/08/07 08:13:57;;;;;;;8.32;5.60;;;;;;;35.43;33.28;100457.03;5050849;28;20051;-83
2022/08/07 08:16:42;;;;;;;8.93;5.18;;;;;;;35.68;32.57;100474.06;5047904;28;20045;-82
2022/08/07 08:19:09;;;;;;;10.90;5.53;;;;;;;35.91;31.66;100467.03;5015779;28;20056;-84
2022/08/07 08:27:04;;;;;;;13.60;5.43;;;;;;;36.41;30.15;100479.47;5033226;28;20059;-83
2022/08/07 08:29:37;;;;;;;10.70;5.60;;;;;;;36.17;30.25;100463.31;4997276;28;20053;-82
2022/08/07 08:32:03;;;;;;;14.25;5.45;;;;;;;35.81;31.22;100461.84;5030992;28;20033;-82
2022/08/07 08:34:29;;;;;;;13.93;6.00;;;;;;;36.23;30.79;100473.16;5016649;28;20421;-84
2022/08/07 08:37:15;;;;;;;15.75;5.40;;;;;;;36.04;31.38;100469.97;5009754;28;20044;-83
2022/08/07 08:39:44;;;;;;;12.10;5.55;;;;;;;36.55;31.55;100473.59;5032421;28;20039;-84
2022/08/07 08:42:21;;;;;;;11.10;5.45;;;;;;;36.98;30.80;100483.66;5014246;28;20052;-84
2022/08/07 08:45:25;;;;;;;10.05;5.18;;;;;;;36.96;30.40;100471.97;5015936;28;20033;-83
2022/08/07 08:48:18;;;;;;;13.15;5.20;;;;;;;36.97;30.55;100471.63;5005434;28;20044;-83
2022/08/07 08:51:01;;;;;;;11.88;5.70;;;;;;;37.43;29.97;100471.66;5045019;28;20111;-83
2022/08/07 08:54:07;;;;;;;8.67;5.10;;;;;;;37.77;29.65;100466.84;5018161;28;20047;-83
2022/08/07 08:56:35;;;;;;;12.65;5.10;;;;;;;38.16;29.14;100456.09;4931061;28;20410;-83
2022/08/07 08:59:21;;;;;;;10.40;5.38;;;;;;;38.33;29.04;100455.84;5002802;28;20052;-84
2022/08/07 09:02:11;;;;;;;8.20;4.78;;;;;;;39.04;27.99;100459.16;5030859;28;20025;-82
2022/08/07 09:04:57;;;;;;;11.82;5.22;;;;;;;39.32;27.10;100455.50;5031633;28;20071;-83
2022/08/07 09:07:48;;;;;;;19.33;5.10;;;;;;;39.39;27.67;100479.00;5016779;28;20029;-81
2022/08/07 09:10:36;;;;;;;10.70;4.93;;;;;;;39.21;27.55;100472.88;5021090;28;20041;-83
2022/08/07 09:13:12;;;;;;;12.85;5.47;;;;;;;39.04;27.77;100473.22;5034079;28;20060;-82
2022/08/07 09:15:57;;;;;;;8.98;4.80;;;;;;;38.81;28.38;100470.13;5022032;28;20060;-82
2022/08/07 09:18:35;;;;;;;10.85;4.60;;;;;;;39.55;26.80;100469.75;5005596;28;20028;-82
2022/08/07 09:21:09;;;;;;;8.93;4.78;;;;;;;39.50;26.55;100468.06;5044850;28;20033;-82
2022/08/07 09:23:52;;;;;;;7.15;4.90;;;;;;;40.06;26.23;100478.28;5044833;28;20047;-83
2022/08/07 09:26:44;;;;;;;12.10;4.85;;;;;;;40.63;24.66;100473.19;5035383;28;20461;-83
2022/08/07 09:29:52;;;;;;;11.48;4.65;;;;;;;39.93;26.20;100473.97;5000394;28;20104;-83
2022/08/07 09:32:47;;;;;;;12.82;5.13;;;;;;;41.59;24.58;100473.50;4957385;28;20176;-83
2022/08/07 09:35:24;;;;;;;11.52;4.50;;;;;;;41.29;24.79;100462.84;5024024;28;20032;-82
2022/08/07 09:38:10;;;;;;;13.57;4.93;;;;;;;40.16;25.94;100476.94;5020168;28;20493;-82
2022/08/07 09:40:52;;;;;;;10.48;4.60;;;;;;;39.61;26.40;100474.75;5022305;28;20110;-82
2022/08/07 09:43:37;;;;;;;12.10;5.05;;;;;;;40.26;26.29;100484.84;5048252;28;20027;-82
2022/08/07 09:46:25;;;;;;;10.40;4.90;;;;;;;41.45;24.31;100457.09;5046483;28;20412;-82
2022/08/07 09:49:17;;;;;;;12.20;4.70;;;;;;;41.84;23.70;100451.31;5020311;28;20033;-82
2022/08/07 09:52:07;;;;;;;12.57;4.68;;;;;;;41.90;23.51;100466.75;4995327;28;20051;-84
2022/08/07 09:54:54;;;;;;;9.85;4.60;;;;;;;42.55;22.68;100468.56;5046488;28;20040;-82
2022/08/07 09:57:34;;;;;;;11.25;4.80;;;;;;;43.15;21.88;100473.31;5005696;28;20099;-82
2022/08/07 10:00:03;;;;;;;9.05;4.20;;;;;;;43.89;20.74;100477.28;5006080;28;20132;-84
2022/08/07 10:02:42;;;;;;;9.48;4.50;;;;;;;44.20;20.70;100462.53;5033375;28;20033;-83
2022/08/07 10:05:50;;;;;;;12.07;4.50;;;;;;;43.15;20.98;100470.47;5016959;28;20030;-84
2022/08/07 10:08:43;;;;;;;13.63;4.47;;;;;;;42.04;22.48;100461.34;5036734;28;20414;-83
2022/08/07 10:11:50;;;;;;;8.27;4.07;;;;;;;43.27;20.90;100458.94;5042640;28;20465;-83
2022/08/07 10:14:24;;;;;;;7.95;4.30;;;;;;;42.98;21.07;100455.75;5030417;28;20037;-83
2022/08/07 10:17:08;;;;;;;;;;;;;;;42.93;21.33;100461.78;5029772;28;20127;-83
2022/08/07 10:19:55;;;;;;;9.18;4.25;;;;;;;42.09;20.88;100441.25;5032106;28;19917;-83
2022/08/07 10:22:30;;;;;;;6.25;3.90;;;;;;;41.27;22.42;100473.69;5047008;28;20080;-83
2022/08/07 10:25:17;;;;;;;8.70;3.78;;;;;;;41.04;22.05;100460.34;5049074;28;20072;-83
2022/08/07 10:27:43;;;;;;;7.15;3.80;;;;;;;40.72;22.38;100466.16;5026907;28;20065;-83
2022/08/07 10:30:43;;;;;;;7.20;3.70;;;;;;;41.11;22.06;100470.94;5024758;28;20468;-84
2022/08/07 10:33:22;;;;;;;6.93;3.80;;;;;;;41.11;21.63;100460.50;5037313;28;20051;-83
2022/08/07 10:36:12;;;;;;;5.15;3.60;;;;;;;42.30;20.32;100457.69;5026498;28;20030;-82
2022/08/07 10:38:43;;;;;;;6.75;3.30;;;;;;;42.23;19.41;100440.66;5039528;28;20052;-84
2022/08/07 10:41:33;;;;;;;5.88;3.50;;;;;;;41.52;20.54;100457.22;5028927;28;20029;-83
2022/08/07 10:44:14;;;;;;;7.35;3.67;;;;;;;42.07;20.55;100456.94;5015028;28;20033;-84
2022/08/07 10:46:54;;;;;;;8.93;3.95;;;;;;;41.93;20.04;100460.34;5019368;28;20103;-85
2022/08/07 10:49:43;;;;;;;11.82;3.40;;;;;;;40.89;20.65;100442.34;5036108;28;20423;-83
2022/08/07 10:52:13;;;;;;;7.95;3.60;;;;;;;41.47;20.25;100444.25;5024759;28;20559;-81
2022/08/07 10:54:42;;;;;;;6.68;3.20;;;;;;;41.62;19.82;100456.63;5016051;28;20060;-82
2022/08/07 10:57:30;;;;;;;4.95;3.20;;;;;;;40.91;21.14;100451.25;5006828;28;20110;-80
2022/08/07 11:00:04;;;;;;;7.88;3.50;;;;;;;41.48;20.64;100456.34;5047097;28;20061;-81
2022/08/07 11:02:53;;;;;;;7.88;3.35;;;;;;;40.33;21.39;100454.03;5052025;28;20115;-82
2022/08/07 11:05:55;;;;;;;8.82;3.50;;;;;;;40.27;21.67;100449.84;5031966;28;20031;-81
2022/08/07 11:08:41;;;;;;;7.60;3.17;;;;;;;40.24;22.08;100461.81;5033416;28;20033;-82
2022/08/07 11:11:20;;;;;;;5.88;3.15;;;;;;;39.10;23.07;100445.66;5038274;28;20033;-83
2022/08/07 11:13:48;;;;;;;8.57;3.38;;;;;;;38.16;23.98;100440.06;5050946;28;20484;-84
2022/08/07 11:16:18;;;;;;;7.05;3.53;;;;;;;38.03;24.18;100449.69;5026610;28;20024;-84
2022/08/07 11:19:02;;;;;;;9.73;3.72;;;;;;;38.10;24.34;100452.72;5033510;28;20065;-85
2022/08/07 11:21:37;;;;;;;7.65;3.45;;;;;;;38.03;24.62;100440.44;5046271;28;20151;-83
2022/08/07 11:24:11;;;;;;;7.80;3.22;;;;;;;37.69;24.84;100448.94;5034177;28;20050;-83
2022/08/07 11:26:39;;;;;;;;;;;;;;;37.49;24.72;100441.44;5046185;28;20025;-82
2022/08/07 11:29:08;;;;;;;6.60;3.05;;;;;;;36.71;25.88;100441.06;5049240;28;20384;-84
2022/08/07 11:32:04;;;;;;;5.53;3.10;;;;;;;36.68;25.73;100443.72;5025216;28;20056;-82
2022/08/07 11:34:41;;;;;;;10.55;4.57;;;;;;;36.73;25.97;100435.91;5046687;28;20032;-83
2022/08/07 11:37:27;;;;;;;8.93;3.30;;;;;;;36.57;25.97;100443.25;5016203;28;20056;-82
2022/08/07 11:40:04;;;;;;;5.65;2.85;;;;;;;36.40;25.62;100437.81;5031356;28;20033;-82
2022/08/07 11:42:33;;;;;;;5.53;3.08;;;;;;;36.55;25.69;100431.63;5047073;28;20118;-81
2022/08/07 11:45:17;;;;;;;5.22;2.90;;;;;;;36.46;25.29;100431.69;5028523;28;20031;-80
2022/08/07 11:47:55;;;;;;;6.95;3.17;;;;;;;36.85;25.26;100437.13;5044461;28;20039;-80